TAF and METAR

Could not understand the following METAR

NVSC 141500Z AUTO 03002KT //// // NCD 28/22 Q1009 RMK NIL

TAF for Sola Airport

TAF NVSC 141000Z 1412/1512 VRB04KT 9999 BKN020 OVC100 INTER 1412/1418 8000 SHRA BKN018 OVC040
Report created 14. des 11:00

between 14. des 13:00 - 15. des 13:00

wind 4 knots from various directions visibility > 10km broken clouds (~75% cover) at 2000 feet overcast at 10000 feet
Sola Airport in Vanuatu at 18m

Latest 5 airports